Terminal Aerodrome Forecast
Issued by NWS Louisville, KY

Home | Current Version | Previous Version | Text Only | Print | Product List | Glossary On
Versions: 1 2 3 4 5 6 7 8 9 10 11 12 13 14 15 16 17
000
FTUS43 KLMK 182044 AAA
TAFBWG
TAF AMD
KBWG 182044Z 1821/1918 23008KT 5SM BR BKN015 BKN025
     FM190300 21004KT 4SM BR OVC012
     FM190900 21008KT 5SM BR OVC008=

USA.gov is the U.S. government's official web portal to all federal, state and local government web resources and services.